Time;durP1;ratioP1;P1;durP2;ratioP2;P2;SDS_P1;SDS_P2;PMS_P1;PMS_P2;Temp;Humidity;BMP_temperature;BMP_pressure;BME280_temperature;BME280_humidity;BME280_pressure;Samples;Min_cycle;Max_cycle;Signal;HPM_P1;HPM_P2
2023/08/30 00:00:54;;;;;;;10.32;9.05;;;13.80;99.90;;;;;;5112838;27;20089;-58
2023/08/30 00:03:20;;;;;;;10.88;9.77;;;13.70;99.90;;;;;;5125494;27;20082;-57
2023/08/30 00:05:46;;;;;;;10.38;9.30;;;13.70;99.90;;;;;;5131446;27;20495;-58
2023/08/30 00:08:13;;;;;;;9.70;8.80;;;13.70;99.90;;;;;;5109533;27;20047;-57
2023/08/30 00:10:39;;;;;;;9.50;8.25;;;13.70;99.90;;;;;;5127604;27;20427;-58
2023/08/30 00:13:09;;;;;;;7.70;6.90;;;13.60;99.90;;;;;;5129025;27;20059;-58
2023/08/30 00:15:34;;;;;;;7.57;6.75;;;13.60;99.90;;;;;;5119045;27;20050;-58
2023/08/30 00:18:00;;;;;;;7.68;5.40;;;13.50;99.90;;;;;;5132952;27;20459;-58
2023/08/30 00:20:26;;;;;;;5.50;5.00;;;13.50;99.90;;;;;;5128283;27;20082;-58
2023/08/30 00:22:52;;;;;;;9.57;6.70;;;13.40;99.90;;;;;;5135535;27;20684;-57
2023/08/30 00:25:18;;;;;;;6.78;6.18;;;13.40;99.90;;;;;;5129239;27;20142;-58
2023/08/30 00:27:43;;;;;;;8.88;8.07;;;13.30;99.90;;;;;;5136354;27;20118;-58
2023/08/30 00:30:10;;;;;;;9.43;8.07;;;13.30;99.90;;;;;;5131320;27;20057;-56
2023/08/30 00:32:36;;;;;;;11.95;8.23;;;13.20;99.90;;;;;;5130847;27;20061;-58
2023/08/30 00:35:02;;;;;;;10.85;9.75;;;13.20;99.90;;;;;;5133549;27;20051;-58
2023/08/30 00:37:27;;;;;;;13.50;10.75;;;13.20;99.90;;;;;;5139892;27;20066;-58
2023/08/30 00:39:53;;;;;;;13.70;11.50;;;13.30;99.90;;;;;;5134514;27;20139;-58
2023/08/30 00:42:19;;;;;;;12.93;11.52;;;13.30;99.90;;;;;;5111307;27;20087;-57
2023/08/30 00:44:44;;;;;;;17.90;12.98;;;13.30;99.90;;;;;;5133375;27;20458;-57
2023/08/30 00:47:10;;;;;;;14.05;11.93;;;13.30;99.90;;;;;;5130231;27;20066;-58
2023/08/30 00:49:36;;;;;;;14.07;12.57;;;13.30;99.90;;;;;;5133721;27;20046;-58
2023/08/30 00:52:09;;;;;;;15.60;13.57;;;13.30;99.90;;;;;;5082663;28;20064;-60
2023/08/30 00:54:35;;;;;;;13.90;12.43;;;13.20;99.90;;;;;;5132823;27;20058;-58
2023/08/30 00:57:01;;;;;;;14.88;13.35;;;13.20;99.90;;;;;;5131820;27;20471;-58
2023/08/30 00:59:27;;;;;;;16.00;13.30;;;13.20;99.90;;;;;;5133852;27;20063;-57
2023/08/30 01:01:54;;;;;;;15.35;12.23;;;13.10;99.90;;;;;;5130338;27;20159;-58
2023/08/30 01:04:20;;;;;;;14.35;12.30;;;13.00;99.90;;;;;;5131458;27;20053;-58
2023/08/30 01:06:46;;;;;;;13.88;12.35;;;13.00;99.90;;;;;;5132103;27;20058;-57
2023/08/30 01:09:12;;;;;;;14.30;12.35;;;13.00;99.90;;;;;;5133064;27;20051;-58
2023/08/30 01:11:58;;;;;;;15.20;13.05;;;13.00;99.90;;;;;;5132783;27;20145;-58
2023/08/30 01:14:37;;;;;;;13.27;11.88;;;13.00;99.90;;;;;;5128073;27;20658;-58
2023/08/30 01:17:09;;;;;;;15.25;11.82;;;12.90;99.90;;;;;;5133448;27;20057;-58
2023/08/30 01:20:00;;;;;;;14.27;11.63;;;12.90;99.90;;;;;;5110248;27;20119;-58
2023/08/30 01:22:52;;;;;;;14.30;12.32;;;12.90;99.90;;;;;;5133853;27;20481;-58
2023/08/30 01:25:29;;;;;;;14.55;11.43;;;12.90;99.90;;;;;;5118687;27;20053;-58
2023/08/30 01:27:56;;;;;;;13.02;11.60;;;12.80;99.90;;;;;;5134845;27;20054;-58
2023/08/30 01:30:23;;;;;;;13.55;11.90;;;12.80;99.90;;;;;;5110884;27;20050;-57
2023/08/30 01:32:50;;;;;;;12.38;11.15;;;12.80;99.90;;;;;;5131898;27;20123;-58
2023/08/30 01:35:19;;;;;;;15.05;12.32;;;12.70;99.90;;;;;;5112906;27;20055;-61
2023/08/30 01:37:46;;;;;;;14.65;12.40;;;12.10;99.90;;;;;;5106046;27;20055;-59
2023/08/30 01:40:14;;;;;;;13.40;12.00;;;12.80;99.90;;;;;;5119736;27;20192;-57
2023/08/30 01:42:41;;;;;;;12.48;11.18;;;12.80;99.90;;;;;;5126957;27;20082;-58
2023/08/30 01:45:13;;;;;;;10.70;9.60;;;12.70;99.90;;;;;;5133415;27;20070;-57
2023/08/30 01:47:40;;;;;;;11.60;10.45;;;12.70;99.90;;;;;;5128837;27;20061;-57
2023/08/30 01:50:11;;;;;;;12.75;10.88;;;12.60;99.90;;;;;;5134368;27;20059;-57
2023/08/30 01:52:37;;;;;;;12.35;11.05;;;12.60;99.90;;;;;;5130008;27;20138;-58
2023/08/30 01:55:04;;;;;;;17.08;12.30;;;12.60;99.90;;;;;;5131858;27;20054;-58
2023/08/30 01:57:30;;;;;;;18.13;11.02;;;12.50;99.90;;;;;;5136052;27;20831;-57
2023/08/30 01:59:55;;;;;;;12.63;11.23;;;12.50;99.90;;;;;;5130534;27;20054;-58
2023/08/30 02:02:21;;;;;;;12.27;10.60;;;12.40;99.90;;;;;;5131874;27;20126;-58
2023/08/30 02:04:47;;;;;;;12.68;10.75;;;12.50;99.90;;;;;;5129730;27;20050;-57
2023/08/30 02:07:28;;;;;;;12.20;10.70;;;12.40;99.90;;;;;;5129193;27;20572;-57
2023/08/30 02:09:54;;;;;;;12.38;10.77;;;12.40;99.90;;;;;;5111006;27;20066;-57
2023/08/30 02:12:22;;;;;;;14.73;12.10;;;12.40;99.90;;;;;;5110159;27;20043;-57
2023/08/30 02:14:49;;;;;;;12.80;11.50;;;12.40;99.90;;;;;;5112801;27;20047;-57
2023/08/30 02:17:15;;;;;;;13.05;10.98;;;12.40;99.90;;;;;;5107368;27;20062;-57
2023/08/30 02:19:43;;;;;;;13.50;9.82;;;12.40;99.90;;;;;;5131419;27;20051;-58
2023/08/30 02:22:09;;;;;;;13.35;10.88;;;12.40;99.90;;;;;;5127998;27;20044;-58
2023/08/30 02:24:35;;;;;;;11.75;10.32;;;12.40;99.90;;;;;;5131622;27;20061;-58
2023/08/30 02:27:00;;;;;;;10.52;9.45;;;12.40;99.90;;;;;;5132413;27;20085;-58
2023/08/30 02:29:26;;;;;;;12.10;9.35;;;12.30;99.90;;;;;;5130256;27;20074;-58
2023/08/30 02:31:52;;;;;;;9.68;8.48;;;12.30;99.90;;;;;;5132563;27;20051;-57
2023/08/30 02:34:17;;;;;;;10.13;8.60;;;12.20;99.90;;;;;;5127034;27;20062;-57
2023/08/30 02:36:43;;;;;;;11.60;10.40;;;12.20;99.90;;;;;;5094885;27;1109905;-57
2023/08/30 02:39:09;;;;;;;12.68;9.05;;;12.20;99.90;;;;;;5128074;27;20065;-56
2023/08/30 02:41:34;;;;;;;13.13;8.98;;;12.20;99.90;;;;;;5129807;27;20051;-58
2023/08/30 02:44:00;;;;;;;9.00;8.10;;;12.10;99.90;;;;;;5111421;27;20047;-58
2023/08/30 02:46:26;;;;;;;9.10;8.25;;;12.10;99.90;;;;;;5127472;27;20190;-58
2023/08/30 02:48:52;;;;;;;11.50;10.15;;;12.00;99.90;;;;;;5132683;27;20146;-58
2023/08/30 02:51:17;;;;;;;11.20;9.57;;;12.00;99.90;;;;;;5126647;27;20051;-58
2023/08/30 02:53:43;;;;;;;15.95;10.85;;;12.00;99.90;;;;;;5131848;27;20050;-58
2023/08/30 02:56:09;;;;;;;12.07;9.82;;;12.00;99.90;;;;;;5110047;27;20054;-57
2023/08/30 02:58:34;;;;;;;11.90;9.80;;;12.00;99.90;;;;;;5112215;27;20066;-57
2023/08/30 03:01:02;;;;;;;9.40;8.38;;;12.00;99.90;;;;;;5131392;27;20416;-57
2023/08/30 03:03:28;;;;;;;11.25;10.02;;;11.90;99.90;;;;;;5129884;27;20066;-57
2023/08/30 03:05:53;;;;;;;14.38;8.77;;;11.80;99.90;;;;;;5129782;27;20047;-58
2023/08/30 03:08:19;;;;;;;11.98;8.77;;;11.80;99.90;;;;;;5093766;27;20061;-57
2023/08/30 03:10:45;;;;;;;9.65;7.82;;;11.80;99.90;;;;;;5131080;27;20450;-58
2023/08/30 03:13:10;;;;;;;10.20;8.15;;;11.70;99.90;;;;;;5125485;27;20047;-56
2023/08/30 03:15:36;;;;;;;13.30;8.82;;;11.70;99.90;;;;;;5131427;27;20484;-57
2023/08/30 03:18:02;;;;;;;11.20;9.35;;;11.70;99.90;;;;;;5110322;27;20205;-57
2023/08/30 03:20:30;;;;;;;13.38;9.38;;;11.70;99.90;;;;;;5126897;27;20499;-57
2023/08/30 03:23:00;;;;;;;14.60;9.40;;;11.70;99.90;;;;;;5125238;27;20051;-57
2023/08/30 03:25:29;;;;;;;11.10;9.20;;;11.60;99.90;;;;;;5126899;27;20063;-55
2023/08/30 03:27:55;;;;;;;11.98;8.10;;;11.60;99.90;;;;;;5113087;27;20047;-57
2023/08/30 03:30:20;;;;;;;12.05;9.77;;;11.60;99.90;;;;;;5124750;27;20115;-59
2023/08/30 03:32:46;;;;;;;12.00;8.98;;;11.70;99.90;;;;;;5112835;27;20050;-58
2023/08/30 03:35:12;;;;;;;9.73;8.00;;;11.60;99.90;;;;;;5127590;27;20050;-56
2023/08/30 03:37:38;;;;;;;10.35;8.88;;;11.60;99.90;;;;;;5132520;27;20042;-57
2023/08/30 03:40:04;;;;;;;9.48;8.23;;;11.50;99.90;;;;;;5130452;27;20059;-57
2023/08/30 03:42:30;;;;;;;9.77;8.23;;;11.50;99.90;;;;;;5125384;27;20051;-57
2023/08/30 03:44:56;;;;;;;11.57;8.65;;;11.50;99.90;;;;;;5132093;27;20051;-57
2023/08/30 03:47:21;;;;;;;11.20;9.07;;;11.40;99.90;;;;;;5127012;27;20058;-58
2023/08/30 03:49:47;;;;;;;10.35;8.85;;;11.40;99.90;;;;;;5129274;27;20134;-57
2023/08/30 03:52:13;;;;;;;12.80;10.15;;;11.40;99.90;;;;;;5128438;27;20069;-57
2023/08/30 03:54:39;;;;;;;11.77;10.57;;;11.30;99.90;;;;;;5127452;27;20055;-58
2023/08/30 03:57:04;;;;;;;12.95;9.95;;;11.30;99.90;;;;;;5110806;27;20059;-58
2023/08/30 03:59:30;;;;;;;11.15;9.95;;;11.30;99.90;;;;;;5129229;27;20177;-58
2023/08/30 04:01:56;;;;;;;12.65;9.75;;;11.30;99.90;;;;;;5130457;27;20059;-57
2023/08/30 04:04:21;;;;;;;13.70;11.00;;;11.30;99.90;;;;;;5125268;27;20051;-57
2023/08/30 04:06:47;;;;;;;11.90;10.15;;;11.30;99.90;;;;;;5132920;27;20059;-57
2023/08/30 04:09:13;;;;;;;13.02;10.63;;;11.30;99.90;;;;;;5127424;27;20062;-57
2023/08/30 04:11:38;;;;;;;16.75;10.85;;;11.20;99.90;;;;;;5128230;27;20403;-58
2023/08/30 04:14:04;;;;;;;12.07;10.50;;;11.20;99.90;;;;;;5129714;27;20047;-58
2023/08/30 04:16:30;;;;;;;13.45;10.63;;;11.20;99.90;;;;;;5088646;27;20055;-58
2023/08/30 04:18:55;;;;;;;12.40;9.55;;;11.20;99.90;;;;;;5131291;27;20123;-58
2023/08/30 04:21:21;;;;;;;13.35;10.38;;;11.20;99.90;;;;;;5126117;27;20047;-57
2023/08/30 04:23:47;;;;;;;13.38;9.82;;;11.20;99.90;;;;;;5129059;27;20452;-57
2023/08/30 04:26:12;;;;;;;15.38;10.35;;;11.10;99.90;;;;;;5110929;27;20051;-57
2023/08/30 04:28:38;;;;;;;12.57;10.55;;;11.10;99.90;;;;;;5131797;27;20047;-58
2023/08/30 04:31:04;;;;;;;17.90;9.40;;;11.10;99.90;;;;;;5135948;27;20508;-58
2023/08/30 04:33:29;;;;;;;10.70;8.98;;;11.00;99.90;;;;;;5125516;27;20427;-57
2023/08/30 04:35:55;;;;;;;11.38;9.05;;;11.00;99.90;;;;;;5139262;27;20099;-58
2023/08/30 04:38:21;;;;;;;15.10;9.73;;;11.00;99.90;;;;;;5124844;27;20100;-58
2023/08/30 04:40:47;;;;;;;14.20;11.05;;;11.00;99.90;;;;;;5119725;27;20497;-58
2023/08/30 04:43:13;;;;;;;15.45;10.77;;;10.90;99.90;;;;;;5129856;27;20055;-59
2023/08/30 04:45:39;;;;;;;11.52;9.55;;;10.90;99.90;;;;;;5129969;27;20113;-58
2023/08/30 04:48:09;;;;;;;15.07;10.98;;;10.90;99.90;;;;;;5130846;27;20055;-58
2023/08/30 04:50:34;;;;;;;13.90;10.38;;;10.90;99.90;;;;;;5117698;27;20504;-58
2023/08/30 04:53:00;;;;;;;15.05;10.25;;;10.80;99.90;;;;;;5092732;27;20058;-58
2023/08/30 04:55:29;;;;;;;11.75;10.27;;;10.90;99.90;;;;;;5127281;27;20191;-58
2023/08/30 04:57:55;;;;;;;16.75;10.32;;;10.80;99.90;;;;;;5124391;27;20058;-57
2023/08/30 05:00:20;;;;;;;14.65;9.98;;;10.80;99.90;;;;;;5132192;27;20047;-57
2023/08/30 05:02:46;;;;;;;12.63;9.70;;;10.80;99.90;;;;;;5127117;27;20057;-58
2023/08/30 05:05:13;;;;;;;12.95;9.82;;;10.80;99.90;;;;;;5136229;27;20085;-57
2023/08/30 05:07:39;;;;;;;12.68;10.65;;;10.90;99.90;;;;;;5113192;27;20500;-57
2023/08/30 05:12:35;;;;;;;12.63;10.48;;;10.90;99.90;;;;;;5126819;27;20138;-58
2023/08/30 05:15:00;;;;;;;13.18;10.63;;;11.00;99.90;;;;;;5120570;27;20564;-59
2023/08/30 05:17:28;;;;;;;12.00;9.50;;;10.90;99.90;;;;;;5133698;27;20150;-58
2023/08/30 05:19:54;;;;;;;12.18;9.63;;;11.00;99.90;;;;;;5130369;27;20085;-57
2023/08/30 05:22:19;;;;;;;12.85;10.10;;;11.00;99.90;;;;;;5130461;27;20089;-59
2023/08/30 05:24:45;;;;;;;13.50;10.63;;;11.10;99.90;;;;;;5131767;27;20055;-58
2023/08/30 05:27:12;;;;;;;10.70;9.50;;;11.20;99.90;;;;;;5129112;27;20050;-57
2023/08/30 05:29:38;;;;;;;12.50;10.55;;;11.20;99.90;;;;;;5133890;27;20076;-59
2023/08/30 05:32:04;;;;;;;15.55;10.30;;;11.30;99.90;;;;;;5125257;27;20059;-57
2023/08/30 05:34:31;;;;;;;13.10;9.80;;;11.30;99.90;;;;;;5121031;27;20058;-58
2023/08/30 05:36:56;;;;;;;11.77;9.50;;;11.40;99.90;;;;;;5136782;27;20090;-57
2023/08/30 05:39:22;;;;;;;11.45;10.18;;;11.50;99.90;;;;;;5129010;27;20555;-57
2023/08/30 05:41:48;;;;;;;11.02;9.75;;;11.50;99.90;;;;;;5133833;27;20062;-57
2023/08/30 05:44:13;;;;;;;12.82;9.93;;;11.60;99.90;;;;;;5109226;27;20111;-57
2023/08/30 05:46:39;;;;;;;14.88;10.57;;;11.70;99.90;;;;;;5131109;27;20051;-58
2023/08/30 05:49:09;;;;;;;13.18;9.98;;;11.80;99.90;;;;;;5129601;27;20043;-58
2023/08/30 05:51:34;;;;;;;15.10;10.13;;;11.80;99.90;;;;;;5112842;27;20056;-58
2023/08/30 05:54:00;;;;;;;12.82;10.63;;;11.90;99.90;;;;;;5133210;27;20433;-61
2023/08/30 05:56:26;;;;;;;13.90;10.77;;;11.90;99.90;;;;;;5128261;27;20202;-62
2023/08/30 05:58:52;;;;;;;12.00;10.68;;;12.00;99.90;;;;;;5097542;27;20043;-64
2023/08/30 06:01:19;;;;;;;11.07;9.82;;;12.10;99.90;;;;;;5128751;27;20051;-57
2023/08/30 06:03:46;;;;;;;14.50;11.02;;;12.20;99.90;;;;;;5134316;27;20055;-57
2023/08/30 06:06:12;;;;;;;13.23;11.10;;;12.30;99.90;;;;;;5132102;27;20074;-56
2023/08/30 06:08:38;;;;;;;14.18;11.15;;;12.40;99.90;;;;;;5105743;27;20058;-58
2023/08/30 06:11:04;;;;;;;11.85;10.30;;;12.50;99.90;;;;;;5130486;27;20055;-57
2023/08/30 06:13:30;;;;;;;14.52;10.43;;;12.60;99.90;;;;;;5125798;27;20077;-57
2023/08/30 06:15:55;;;;;;;15.40;10.73;;;12.60;99.90;;;;;;5109563;27;20137;-58
2023/08/30 06:18:21;;;;;;;12.25;9.90;;;12.70;99.90;;;;;;5128333;27;20062;-58
2023/08/30 06:20:47;;;;;;;15.02;10.27;;;12.80;99.90;;;;;;5125983;27;20061;-57
2023/08/30 06:23:15;;;;;;;13.85;9.93;;;12.80;99.90;;;;;;5133230;27;20051;-57
2023/08/30 06:25:41;;;;;;;11.60;10.25;;;12.90;99.90;;;;;;5128897;27;20078;-58
2023/08/30 06:28:10;;;;;;;11.90;9.40;;;13.00;99.90;;;;;;5112824;27;20420;-57
2023/08/30 06:30:36;;;;;;;12.00;9.80;;;13.10;99.90;;;;;;5111111;27;20484;-59
2023/08/30 06:33:02;;;;;;;13.75;10.57;;;13.30;99.90;;;;;;5127302;27;20047;-60
2023/08/30 06:35:28;;;;;;;13.13;9.77;;;13.50;99.90;;;;;;5131510;27;20152;-58
2023/08/30 06:37:55;;;;;;;10.93;9.75;;;13.50;99.90;;;;;;5135627;27;20054;-59
2023/08/30 06:40:21;;;;;;;12.18;9.45;;;13.70;99.90;;;;;;5128974;27;20123;-58
2023/08/30 06:42:46;;;;;;;11.95;8.73;;;13.90;99.90;;;;;;5129801;27;20130;-57
2023/08/30 06:45:12;;;;;;;11.85;8.35;;;14.00;99.90;;;;;;5107418;27;20043;-57
2023/08/30 06:47:38;;;;;;;10.85;8.45;;;14.20;99.90;;;;;;5136276;27;20058;-59
2023/08/30 06:50:04;;;;;;;10.10;7.68;;;14.30;99.90;;;;;;5140510;27;20043;-58
2023/08/30 06:52:29;;;;;;;10.23;8.63;;;14.50;99.90;;;;;;5136309;27;20781;-59
2023/08/30 06:54:55;;;;;;;10.27;7.97;;;14.60;99.90;;;;;;5097819;27;1101259;-57
2023/08/30 06:57:21;;;;;;;11.35;8.30;;;14.90;99.90;;;;;;5117513;27;20516;-58
2023/08/30 06:59:47;;;;;;;13.95;8.55;;;14.80;99.90;;;;;;5109854;27;20074;-62
2023/08/30 07:02:13;;;;;;;10.07;8.25;;;15.00;99.90;;;;;;5109776;27;20432;-57
2023/08/30 07:04:40;;;;;;;10.75;7.15;;;15.00;99.90;;;;;;5123779;27;20565;-58
2023/08/30 07:07:09;;;;;;;12.35;8.50;;;15.10;99.90;;;;;;5107545;27;20553;-58
2023/08/30 07:09:35;;;;;;;9.52;7.28;;;15.10;99.90;;;;;;5129711;27;20073;-58
2023/08/30 07:12:01;;;;;;;10.68;8.65;;;15.30;99.90;;;;;;5127792;27;20508;-58
2023/08/30 07:14:26;;;;;;;9.15;6.88;;;15.40;99.90;;;;;;5128688;27;20077;-61
2023/08/30 07:16:52;;;;;;;11.70;7.70;;;15.50;99.90;;;;;;5129764;27;20087;-62
2023/08/30 07:19:18;;;;;;;11.93;8.77;;;15.60;99.90;;;;;;5129124;27;20408;-62
2023/08/30 07:21:43;;;;;;;10.90;8.27;;;15.60;99.90;;;;;;5113544;27;20054;-64
2023/08/30 07:24:09;;;;;;;12.13;7.93;;;15.80;99.90;;;;;;5114390;27;20465;-59
2023/08/30 07:26:35;;;;;;;9.20;6.97;;;15.90;99.90;;;;;;5134675;27;20489;-63
2023/08/30 07:29:01;;;;;;;10.48;7.80;;;16.00;99.90;;;;;;5134430;27;20057;-65
2023/08/30 07:31:27;;;;;;;13.82;8.60;;;16.10;99.90;;;;;;5135927;27;20115;-64
2023/08/30 07:33:53;;;;;;;10.90;8.05;;;16.20;99.90;;;;;;5139333;27;20068;-60
2023/08/30 07:36:18;;;;;;;10.52;7.93;;;16.30;99.90;;;;;;5133718;27;20086;-62
2023/08/30 07:38:44;;;;;;;10.30;7.85;;;16.20;99.90;;;;;;5139782;27;20043;-63
2023/08/30 07:41:10;;;;;;;14.20;9.10;;;16.30;99.90;;;;;;5139271;27;21513;-58
2023/08/30 07:43:36;;;;;;;11.88;8.00;;;16.20;99.90;;;;;;5139428;27;20051;-60
2023/08/30 07:46:01;;;;;;;9.38;7.80;;;16.40;99.90;;;;;;5136357;27;20527;-63
2023/08/30 07:48:27;;;;;;;11.00;7.78;;;16.50;99.90;;;;;;5135474;27;20542;-60
2023/08/30 07:50:53;;;;;;;11.27;8.20;;;16.60;99.90;;;;;;5134765;27;20055;-59
2023/08/30 07:53:19;;;;;;;10.18;7.85;;;16.50;99.90;;;;;;5133043;27;20057;-59
2023/08/30 07:55:49;;;;;;;11.43;8.35;;;16.50;99.90;;;;;;5108877;27;20813;-63
2023/08/30 07:58:16;;;;;;;11.73;8.40;;;16.60;99.90;;;;;;5109725;27;20059;-60
2023/08/30 08:00:42;;;;;;;11.73;8.55;;;16.80;99.90;;;;;;5132625;27;21165;-62
2023/08/30 08:03:10;;;;;;;10.88;8.60;;;16.90;99.90;;;;;;5132250;27;20083;-58
2023/08/30 08:05:36;;;;;;;9.63;7.18;;;17.10;99.90;;;;;;5130143;27;20083;-59
2023/08/30 08:08:03;;;;;;;9.95;7.85;;;17.40;99.90;;;;;;5134290;27;20434;-62
2023/08/30 08:10:35;;;;;;;10.57;7.43;;;17.40;99.90;;;;;;5107526;27;22943;-58
2023/08/30 08:13:01;;;;;;;12.13;8.48;;;17.40;99.90;;;;;;5128344;27;20447;-57
2023/08/30 08:15:30;;;;;;;10.77;6.97;;;17.50;99.90;;;;;;5128220;27;20063;-58
2023/08/30 08:17:56;;;;;;;10.55;7.75;;;17.50;99.90;;;;;;5126248;27;20138;-58
2023/08/30 08:20:22;;;;;;;9.98;7.50;;;17.30;99.90;;;;;;5131067;27;20054;-57
2023/08/30 08:22:48;;;;;;;8.82;7.28;;;17.50;99.90;;;;;;5096086;28;20042;-58
2023/08/30 08:25:15;;;;;;;9.75;7.65;;;17.40;99.90;;;;;;5124859;27;20059;-58
2023/08/30 08:27:41;;;;;;;9.23;7.22;;;17.60;99.90;;;;;;5115248;27;20086;-58
2023/08/30 08:30:11;;;;;;;9.77;7.93;;;17.70;99.90;;;;;;5129678;27;20074;-58
2023/08/30 08:32:36;;;;;;;12.25;7.57;;;18.10;99.90;;;;;;5131793;27;20523;-58
2023/08/30 08:35:02;;;;;;;11.02;7.85;;;18.00;99.90;;;;;;5103790;28;20052;-58
2023/08/30 08:37:28;;;;;;;10.77;8.38;;;17.90;99.90;;;;;;5122420;27;20063;-58
2023/08/30 08:39:54;;;;;;;11.20;7.55;;;17.60;99.90;;;;;;5130328;27;20051;-58
2023/08/30 08:42:21;;;;;;;13.30;9.32;;;17.70;99.90;;;;;;5134650;27;20058;-59
2023/08/30 08:44:50;;;;;;;11.82;7.88;;;17.80;99.90;;;;;;5132470;27;20424;-61
2023/08/30 08:47:18;;;;;;;10.77;7.75;;;17.80;99.90;;;;;;5109553;27;20051;-59
2023/08/30 08:49:48;;;;;;;9.93;7.53;;;18.00;99.90;;;;;;5135391;27;20063;-58
2023/08/30 08:52:15;;;;;;;12.25;9.07;;;18.00;99.90;;;;;;5132948;27;20051;-60
2023/08/30 08:54:41;;;;;;;12.77;8.32;;;18.30;99.90;;;;;;5134751;27;20059;-59
2023/08/30 08:57:09;;;;;;;11.73;8.50;;;18.40;99.90;;;;;;5134807;27;20054;-60
2023/08/30 08:59:36;;;;;;;12.85;7.95;;;18.40;99.90;;;;;;5130998;27;20062;-61
2023/08/30 09:02:02;;;;;;;9.05;6.75;;;18.60;99.90;;;;;;5105542;27;20083;-58
2023/08/30 09:04:31;;;;;;;9.80;8.60;;;18.80;99.90;;;;;;5105921;27;20063;-61
2023/08/30 09:06:59;;;;;;;10.82;8.00;;;18.80;99.90;;;;;;5126034;27;20758;-58
2023/08/30 09:09:25;;;;;;;15.57;8.85;;;19.00;99.90;;;;;;5132047;27;20408;-58
2023/08/30 09:11:50;;;;;;;12.73;8.88;;;19.10;99.90;;;;;;5128960;27;20051;-58
2023/08/30 09:14:17;;;;;;;10.23;9.05;;;19.20;99.90;;;;;;5130450;27;20584;-58
2023/08/30 09:16:42;;;;;;;13.50;8.30;;;19.30;99.90;;;;;;5109176;27;20766;-58
2023/08/30 09:19:10;;;;;;;13.40;8.93;;;19.20;99.90;;;;;;5135912;27;20162;-58
2023/08/30 09:21:36;;;;;;;10.68;7.95;;;19.20;99.90;;;;;;5102494;27;20070;-58
2023/08/30 09:24:04;;;;;;;10.93;7.93;;;18.90;99.90;;;;;;5127464;27;20047;-58
2023/08/30 09:26:31;;;;;;;13.77;9.02;;;19.10;99.90;;;;;;5131461;27;20145;-58
2023/08/30 09:29:09;;;;;;;12.75;7.35;;;18.90;99.90;;;;;;5136332;27;20062;-58
2023/08/30 09:31:36;;;;;;;10.93;7.95;;;18.90;99.90;;;;;;5118392;27;20092;-58
2023/08/30 09:34:10;;;;;;;10.88;7.85;;;19.00;99.90;;;;;;5128962;27;20057;-58
2023/08/30 09:36:38;;;;;;;13.93;8.57;;;18.80;99.90;;;;;;5105183;27;20051;-58
2023/08/30 09:39:09;;;;;;;13.30;8.90;;;18.60;99.90;;;;;;5133270;27;20455;-58
2023/08/30 09:41:36;;;;;;;10.55;8.07;;;18.60;99.90;;;;;;5129240;27;20054;-58
2023/08/30 09:44:09;;;;;;;10.73;8.02;;;18.40;99.90;;;;;;5130951;27;20062;-59
2023/08/30 09:46:46;;;;;;;11.65;8.82;;;18.50;99.90;;;;;;5105807;27;20051;-58
2023/08/30 09:49:12;;;;;;;10.93;8.18;;;18.50;99.90;;;;;;5130401;27;20071;-57
2023/08/30 09:51:42;;;;;;;9.02;7.93;;;18.40;99.90;;;;;;5129396;27;20061;-58
2023/08/30 09:54:16;;;;;;;9.93;8.40;;;18.30;99.90;;;;;;5128672;27;20067;-58
2023/08/30 09:56:45;;;;;;;11.18;8.95;;;18.10;99.90;;;;;;5127583;27;20059;-58
2023/08/30 09:59:14;;;;;;;11.95;8.48;;;17.90;99.90;;;;;;5110464;27;20074;-57
2023/08/30 10:01:41;;;;;;;13.10;8.43;;;17.70;99.90;;;;;;5120809;27;20051;-58
2023/08/30 10:04:32;;;;;;;14.23;8.63;;;17.30;99.90;;;;;;5129551;27;20050;-58
2023/08/30 10:06:59;;;;;;;11.40;8.13;;;17.40;99.90;;;;;;5128253;27;20051;-58
2023/08/30 10:09:25;;;;;;;13.48;8.70;;;17.40;99.90;;;;;;5108248;27;20051;-58
2023/08/30 10:11:51;;;;;;;13.85;8.10;;;17.20;99.90;;;;;;5103745;27;20682;-59
2023/08/30 10:14:17;;;;;;;10.38;7.85;;;17.10;99.90;;;;;;5090361;27;20058;-57
2023/08/30 10:16:45;;;;;;;11.65;7.78;;;16.90;99.90;;;;;;5104968;27;20393;-58
2023/08/30 10:19:31;;;;;;;9.75;6.75;;;16.70;99.90;;;;;;5103848;27;20056;-58
2023/08/30 10:22:13;;;;;;;9.40;6.65;;;16.80;99.90;;;;;;5123139;27;20054;-58
2023/08/30 10:24:44;;;;;;;7.90;6.25;;;16.70;99.90;;;;;;5111467;27;20539;-58
2023/08/30 10:27:11;;;;;;;8.55;6.70;;;17.00;99.90;;;;;;5106857;27;20424;-58
2023/08/30 10:29:40;;;;;;;8.85;5.72;;;17.50;99.90;;;;;;5116804;27;20121;-58
2023/08/30 10:32:10;;;;;;;10.43;7.03;;;17.70;99.90;;;;;;5126066;27;20055;-58
2023/08/30 10:34:36;;;;;;;11.57;6.72;;;18.20;99.90;;;;;;5119811;27;20055;-58
2023/08/30 10:37:09;;;;;;;7.97;5.90;;;18.70;99.90;;;;;;5098931;27;20357;-58
2023/08/30 10:39:40;;;;;;;8.50;4.40;;;19.30;99.90;;;;;;5120380;27;20059;-59
2023/08/30 10:44:31;;;;;;;5.18;4.30;;;20.10;99.90;;;;;;5114728;27;20054;-61
2023/08/30 10:46:57;;;;;;;3.53;3.13;;;20.90;99.90;;;;;;5126510;27;20059;-60
2023/08/30 10:49:23;;;;;;;3.63;3.05;;;21.00;99.90;;;;;;5125337;27;20053;-59
2023/08/30 10:52:00;;;;;;;4.68;4.13;;;20.60;99.90;;;;;;5104841;27;20401;-59
2023/08/30 10:54:38;;;;;;;6.20;4.28;;;21.10;99.90;;;;;;5108693;27;20063;-58
2023/08/30 10:57:04;;;;;;;8.18;5.07;;;20.50;99.90;;;;;;5103684;27;20145;-58
2023/08/30 10:59:30;;;;;;;8.23;5.55;;;21.00;99.90;;;;;;5086383;27;20532;-58
2023/08/30 11:01:56;;;;;;;7.85;4.97;;;20.60;99.90;;;;;;5121358;27;20467;-58
2023/08/30 11:04:22;;;;;;;7.97;6.18;;;20.70;99.90;;;;;;5108725;27;20047;-58
2023/08/30 11:06:50;;;;;;;7.68;6.93;;;20.80;99.90;;;;;;5122234;27;20698;-58
2023/08/30 11:09:18;;;;;;;7.32;5.70;;;20.80;99.90;;;;;;5120857;27;20578;-58
2023/08/30 11:11:45;;;;;;;7.70;6.05;;;20.50;99.90;;;;;;5097382;27;1123737;-57
2023/08/30 11:14:11;;;;;;;6.47;5.75;;;20.50;99.90;;;;;;5101178;27;20484;-57
2023/08/30 11:16:38;;;;;;;7.35;4.82;;;20.50;99.90;;;;;;5109817;27;20488;-58
2023/08/30 11:19:09;;;;;;;7.50;5.38;;;20.10;99.90;;;;;;5107378;27;20056;-58
2023/08/30 11:21:37;;;;;;;6.88;4.82;;;19.90;99.90;;;;;;5111486;27;20053;-59
2023/08/30 11:24:04;;;;;;;6.75;4.55;;;19.90;99.90;;;;;;5126004;27;20077;-61
2023/08/30 11:26:30;;;;;;;5.25;3.53;;;19.70;99.90;;;;;;5122591;27;20043;-60
2023/08/30 11:28:56;;;;;;;5.75;4.90;;;20.10;99.90;;;;;;5127876;27;20053;-61
2023/08/30 11:31:26;;;;;;;4.45;3.72;;;20.00;99.90;;;;;;5124126;27;20389;-59
2023/08/30 11:33:57;;;;;;;5.10;4.30;;;20.30;99.90;;;;;;5132268;27;20191;-59
2023/08/30 11:36:25;;;;;;;7.05;4.50;;;20.40;99.90;;;;;;5122694;27;20051;-60
2023/08/30 11:38:52;;;;;;;6.70;4.65;;;20.20;99.90;;;;;;5132042;27;20055;-60
2023/08/30 11:41:20;;;;;;;5.75;5.05;;;20.10;99.90;;;;;;5124616;27;20058;-61
2023/08/30 11:43:48;;;;;;;5.75;4.88;;;19.80;99.90;;;;;;5116867;27;20183;-66
2023/08/30 11:46:14;;;;;;;5.93;5.13;;;19.80;99.90;;;;;;5125163;27;20061;-58
2023/08/30 11:48:44;;;;;;;6.97;5.63;;;19.90;99.90;;;;;;5104715;27;20046;-65
2023/08/30 11:51:10;;;;;;;6.68;5.63;;;20.00;99.90;;;;;;5126341;27;20058;-61
2023/08/30 11:53:37;;;;;;;7.00;5.15;;;19.50;99.90;;;;;;5122657;27;20051;-64
2023/08/30 11:56:03;;;;;;;7.05;5.47;;;19.50;99.90;;;;;;5108374;27;20078;-58
2023/08/30 11:58:33;;;;;;;7.13;5.60;;;19.30;99.90;;;;;;5122433;27;20771;-58
2023/08/30 12:00:59;;;;;;;7.03;5.57;;;18.80;99.90;;;;;;5130112;27;20138;-57
2023/08/30 12:03:32;;;;;;;7.82;6.57;;;18.80;99.90;;;;;;5121500;27;20051;-57
2023/08/30 12:05:58;;;;;;;8.18;6.78;;;18.70;99.90;;;;;;5124676;27;20051;-57
2023/08/30 12:08:31;;;;;;;8.27;6.80;;;18.50;99.90;;;;;;5104200;27;20058;-57
2023/08/30 12:10:58;;;;;;;8.10;6.50;;;18.30;99.90;;;;;;5106896;27;20323;-57
2023/08/30 12:13:30;;;;;;;7.95;6.53;;;18.10;99.90;;;;;;5130393;27;20065;-59
2023/08/30 12:15:57;;;;;;;8.63;6.72;;;17.80;99.90;;;;;;5127610;27;20396;-65
2023/08/30 12:18:29;;;;;;;7.18;6.03;;;17.80;99.90;;;;;;5130322;27;20058;-61
2023/08/30 12:20:59;;;;;;;6.82;5.47;;;17.70;99.90;;;;;;5125750;27;20065;-64
2023/08/30 12:23:30;;;;;;;8.35;5.82;;;17.60;99.90;;;;;;5128212;27;20134;-63
2023/08/30 12:28:36;;;;;;;8.55;5.00;;;17.30;99.90;;;;;;5130402;27;21945;-65
2023/08/30 12:31:04;;;;;;;6.13;4.88;;;17.10;99.90;;;;;;5133344;27;20075;-62
2023/08/30 12:33:30;;;;;;;8.05;5.32;;;17.10;99.90;;;;;;5128456;27;21346;-64
2023/08/30 12:35:57;;;;;;;6.70;5.05;;;17.20;99.90;;;;;;5128915;27;20057;-64
2023/08/30 12:38:24;;;;;;;5.32;4.50;;;17.20;99.90;;;;;;5119453;27;20043;-65
2023/08/30 12:40:51;;;;;;;5.55;4.93;;;17.10;99.90;;;;;;5134908;27;20085;-58
2023/08/30 12:43:18;;;;;;;6.03;5.00;;;17.20;99.90;;;;;;5124704;27;20054;-58